Terminal Aerodrome Forecast
Issued by NWS

Home | Current Version | Previous Version | Text Only | Print | Product List | Glossary On
Versions: 1 2 3 4 5 6 7 8 9 10 11 12 13 14 15 16 17
000
FTUS41 KBTV 202300
TAFMPV
TAF
KMPV 202330Z 2100/2124 VRB02KT P6SM BKN040 OVC070
     FM210800 VRB02KT P6SM -SHRA SCT025 OVC040
     FM211400 VRB04KT 5SM -RA BR BKN025 OVC040=

USA.gov is the U.S. government's official web portal to all federal, state and local government web resources and services.